createdAt,value
2018-07-16T00:01:01.541Z,5.93
2018-07-16T00:03:30.233Z,6.17
2018-07-16T00:05:58.603Z,6.07
2018-07-16T00:08:26.959Z,5.97
2018-07-16T00:10:55.384Z,6.30
2018-07-16T00:13:23.759Z,7.70
2018-07-16T00:15:52.360Z,6.43
2018-07-16T00:18:20.717Z,5.87
2018-07-16T00:20:49.115Z,7.53
2018-07-16T00:23:17.515Z,7.07
2018-07-16T00:25:45.949Z,7.10
2018-07-16T00:28:14.354Z,7.33
2018-07-16T00:30:42.711Z,7.00
2018-07-16T00:33:11.073Z,7.93
2018-07-16T00:35:39.463Z,6.53
2018-07-16T00:38:07.834Z,6.53
2018-07-16T00:40:36.198Z,10.07
2018-07-16T00:43:04.585Z,8.27
2018-07-16T00:45:32.954Z,7.23
2018-07-16T00:48:01.339Z,6.93
2018-07-16T00:50:29.718Z,7.57
2018-07-16T00:52:58.096Z,8.33
2018-07-16T00:55:26.498Z,7.57
2018-07-16T00:57:54.865Z,9.97
2018-07-16T01:00:23.245Z,9.17
2018-07-16T01:02:51.643Z,8.60
2018-07-16T01:05:20.006Z,7.90
2018-07-16T01:07:48.347Z,9.87
2018-07-16T01:10:16.841Z,7.43
2018-07-16T01:12:45.211Z,10.23
2018-07-16T01:15:13.530Z,8.67
2018-07-16T01:17:42.167Z,8.47
2018-07-16T01:20:10.582Z,8.30
2018-07-16T01:22:38.956Z,9.83
2018-07-16T01:25:07.315Z,8.13
2018-07-16T01:27:35.727Z,9.17
2018-07-16T01:30:04.217Z,10.47
2018-07-16T01:32:32.567Z,10.40
2018-07-16T01:35:01.077Z,8.57
2018-07-16T01:37:29.492Z,8.30
2018-07-16T01:39:57.806Z,7.77
2018-07-16T01:42:26.182Z,8.30
2018-07-16T01:44:54.581Z,8.73
2018-07-16T01:47:22.932Z,9.70
2018-07-16T01:49:51.307Z,8.67
2018-07-16T01:52:20.228Z,7.90
2018-07-16T01:54:48.607Z,8.63
2018-07-16T01:57:16.959Z,8.83
2018-07-16T01:59:45.361Z,10.30
2018-07-16T02:02:14.252Z,11.40
2018-07-16T02:04:42.603Z,7.77
2018-07-16T02:07:10.960Z,7.00
2018-07-16T02:09:39.319Z,9.63
2018-07-16T02:12:07.656Z,8.57
2018-07-16T02:14:36.107Z,8.90
2018-07-16T02:17:04.575Z,7.80
2018-07-16T02:19:32.928Z,9.23
2018-07-16T02:22:01.328Z,8.20
2018-07-16T02:24:29.712Z,8.23
2018-07-16T02:26:58.124Z,7.83
2018-07-16T02:29:26.471Z,9.33
2018-07-16T02:31:54.943Z,8.60
2018-07-16T02:34:23.351Z,8.03
2018-07-16T02:36:51.719Z,6.43
2018-07-16T02:39:20.108Z,7.57
2018-07-16T02:41:48.445Z,7.50
2018-07-16T02:44:16.819Z,7.93
2018-07-16T02:46:45.200Z,8.37
2018-07-16T02:49:13.887Z,8.70
2018-07-16T02:51:42.249Z,7.27
2018-07-16T02:54:10.545Z,7.23
2018-07-16T02:56:38.903Z,7.60
2018-07-16T02:59:07.287Z,9.20
2018-07-16T03:01:35.629Z,8.03
2018-07-16T03:04:04.003Z,8.80
2018-07-16T03:06:32.641Z,8.27
2018-07-16T03:09:01.003Z,8.70
2018-07-16T03:11:29.384Z,7.90
2018-07-16T03:13:57.771Z,7.67
2018-07-16T03:16:26.138Z,8.50
2018-07-16T03:18:54.529Z,8.77
2018-07-16T03:21:22.900Z,7.83
2018-07-16T03:23:51.612Z,7.83
2018-07-16T03:26:20.028Z,12.50
2018-07-16T03:28:48.399Z,7.33
2018-07-16T03:31:16.797Z,10.20
2018-07-16T03:33:45.207Z,10.73
2018-07-16T03:36:13.651Z,19.07
2018-07-16T03:38:41.975Z,8.83
2018-07-16T03:41:10.346Z,8.77
2018-07-16T03:43:38.722Z,9.47
2018-07-16T03:46:07.120Z,8.10
2018-07-16T03:48:35.495Z,10.30
2018-07-16T03:51:03.843Z,8.37
2018-07-16T03:53:32.208Z,8.23
2018-07-16T03:56:00.580Z,10.20
2018-07-16T03:58:29.017Z,7.80
2018-07-16T04:00:57.370Z,9.07
2018-07-16T04:03:25.985Z,9.20
2018-07-16T04:05:54.356Z,9.33
2018-07-16T04:08:22.680Z,9.67
2018-07-16T04:10:51.087Z,7.77
2018-07-16T04:13:19.465Z,9.90
2018-07-16T04:15:47.842Z,8.83
2018-07-16T04:18:19.135Z,8.70
2018-07-16T04:20:48.025Z,10.63
2018-07-16T04:23:16.662Z,8.30
2018-07-16T04:25:44.991Z,9.33
2018-07-16T04:28:13.377Z,8.90
2018-07-16T04:30:41.813Z,9.93
2018-07-16T04:33:10.444Z,9.23
2018-07-16T04:35:38.818Z,10.60
2018-07-16T04:38:07.322Z,11.73
2018-07-16T04:40:35.758Z,10.57
2018-07-16T04:43:04.111Z,9.73
2018-07-16T04:45:32.602Z,12.97
2018-07-16T04:48:00.973Z,10.67
2018-07-16T04:50:29.371Z,9.00
2018-07-16T04:52:57.770Z,11.63
2018-07-16T04:55:26.178Z,10.77
2018-07-16T04:57:54.578Z,10.67
2018-07-16T05:00:23.281Z,10.17
2018-07-16T05:02:51.711Z,12.50
2018-07-16T05:05:20.082Z,13.53
2018-07-16T05:07:48.471Z,15.87
2018-07-16T05:10:16.935Z,11.47
2018-07-16T05:12:45.388Z,12.33
2018-07-16T05:15:13.815Z,10.50
2018-07-16T05:17:42.264Z,10.43
2018-07-16T05:20:10.683Z,12.30
2018-07-16T05:22:39.068Z,8.77
2018-07-16T05:25:07.431Z,13.67
2018-07-16T05:27:35.842Z,11.07
2018-07-16T05:30:04.207Z,11.13
2018-07-16T05:32:32.748Z,10.57
2018-07-16T05:35:01.037Z,12.57
2018-07-16T05:37:29.428Z,10.80
2018-07-16T05:39:57.794Z,12.70
2018-07-16T05:42:26.168Z,15.50
2018-07-16T05:44:54.554Z,12.80
2018-07-16T05:47:23.019Z,10.17
2018-07-16T05:49:51.486Z,12.37
2018-07-16T05:52:19.931Z,14.07
2018-07-16T05:54:48.363Z,12.33
2018-07-16T05:57:16.800Z,15.23
2018-07-16T05:59:45.298Z,20.83
2018-07-16T06:02:13.662Z,15.73
2018-07-16T06:04:42.075Z,18.13
2018-07-16T06:07:10.500Z,9.50
2018-07-16T06:09:39.066Z,12.40
2018-07-16T06:12:07.553Z,16.30
2018-07-16T06:14:36.167Z,11.43
2018-07-16T06:17:04.521Z,17.63
2018-07-16T06:19:33.016Z,17.83
2018-07-16T06:22:01.856Z,15.60
2018-07-16T06:24:30.323Z,9.17
2018-07-16T06:26:58.786Z,14.43
2018-07-16T06:29:27.265Z,11.90
2018-07-16T06:31:55.660Z,13.83
2018-07-16T06:34:24.279Z,10.20
2018-07-16T06:36:52.691Z,10.50
2018-07-16T06:39:21.123Z,9.43
2018-07-16T06:41:49.636Z,11.57
2018-07-16T06:44:18.060Z,12.77
2018-07-16T06:46:46.422Z,13.23
2018-07-16T06:49:14.948Z,16.07
2018-07-16T06:51:44.959Z,8.27
2018-07-16T06:54:13.419Z,12.70
2018-07-16T06:56:41.873Z,11.60
2018-07-16T06:59:10.267Z,12.60
2018-07-16T07:01:44.986Z,7.80
2018-07-16T07:04:13.394Z,8.00
2018-07-16T07:06:41.751Z,10.93
2018-07-16T07:09:10.152Z,7.53
2018-07-16T07:11:38.531Z,8.97
2018-07-16T07:14:10.978Z,9.50
2018-07-16T07:16:39.405Z,7.93
2018-07-16T07:19:07.787Z,5.63
2018-07-16T07:21:36.169Z,4.87
2018-07-16T07:24:04.579Z,6.23
2018-07-16T07:26:32.928Z,8.40
2018-07-16T07:29:03.323Z,8.47
2018-07-16T07:31:31.776Z,9.53
2018-07-16T07:34:00.107Z,5.63
2018-07-16T07:36:28.492Z,3.50
2018-07-16T07:38:57.278Z,8.57
2018-07-16T07:41:25.837Z,8.43
2018-07-16T07:43:54.229Z,5.20
2018-07-16T07:46:22.662Z,4.53
2018-07-16T07:48:51.030Z,5.73
2018-07-16T07:51:19.424Z,5.70
2018-07-16T07:53:47.781Z,5.03
2018-07-16T07:56:16.208Z,4.80
2018-07-16T07:58:44.658Z,4.73
2018-07-16T08:01:13.119Z,3.67
2018-07-16T08:03:41.511Z,3.53
2018-07-16T08:06:09.986Z,3.20
2018-07-16T08:08:38.467Z,7.53
2018-07-16T08:11:07.134Z,5.13
2018-07-16T08:13:37.783Z,4.47
2018-07-16T08:16:06.171Z,4.40
2018-07-16T08:18:34.622Z,3.27
2018-07-16T08:21:03.196Z,4.17
2018-07-16T08:23:31.567Z,6.17
2018-07-16T08:25:59.908Z,5.90
2018-07-16T08:28:28.414Z,6.03
2018-07-16T08:30:56.755Z,4.70
2018-07-16T08:33:25.154Z,6.97
2018-07-16T08:35:53.532Z,3.03
2018-07-16T08:38:21.877Z,5.30
2018-07-16T08:40:50.218Z,7.70
2018-07-16T08:43:18.531Z,4.57
2018-07-16T08:45:46.851Z,3.77
2018-07-16T08:48:15.158Z,5.07
2018-07-16T08:50:43.498Z,7.03
2018-07-16T08:53:11.818Z,4.77
2018-07-16T08:55:40.119Z,4.07
2018-07-16T08:58:08.449Z,2.10
2018-07-16T09:00:36.758Z,2.80
2018-07-16T09:03:05.122Z,3.50
2018-07-16T09:05:33.454Z,5.93
2018-07-16T09:08:01.770Z,2.87
2018-07-16T09:10:30.098Z,5.77
2018-07-16T09:12:58.428Z,6.43
2018-07-16T09:15:26.723Z,3.20
2018-07-16T09:17:55.056Z,4.53
2018-07-16T09:20:23.387Z,5.33
2018-07-16T09:22:51.672Z,2.63
2018-07-16T09:25:20.071Z,2.73
2018-07-16T09:27:48.376Z,3.53
2018-07-16T09:30:16.686Z,2.30
2018-07-16T09:32:45.113Z,2.83
2018-07-16T09:35:13.336Z,4.83
2018-07-16T09:37:41.671Z,4.00
2018-07-16T09:40:09.990Z,5.00
2018-07-16T09:42:38.304Z,8.63
2018-07-16T09:45:06.667Z,2.50
2018-07-16T09:47:34.983Z,4.10
2018-07-16T09:50:03.327Z,3.07
2018-07-16T09:52:31.627Z,3.93
2018-07-16T09:54:59.927Z,2.60
2018-07-16T09:57:28.243Z,5.53
2018-07-16T09:59:56.551Z,2.30
2018-07-16T10:02:24.851Z,6.73
2018-07-16T10:04:53.166Z,3.73
2018-07-16T10:07:21.484Z,3.50
2018-07-16T10:09:49.801Z,2.00
2018-07-16T10:12:18.118Z,2.93
2018-07-16T10:14:46.426Z,4.53
2018-07-16T10:17:15.126Z,2.30
2018-07-16T10:19:43.396Z,4.63
2018-07-16T10:22:11.723Z,4.23
2018-07-16T10:24:40.085Z,6.80
2018-07-16T10:27:08.391Z,1.50
2018-07-16T10:29:36.735Z,1.70
2018-07-16T10:32:05.082Z,3.07
2018-07-16T10:34:33.414Z,2.50
2018-07-16T10:37:01.735Z,3.40
2018-07-16T10:39:30.214Z,1.40
2018-07-16T10:41:58.436Z,3.17
2018-07-16T10:44:26.748Z,2.43
2018-07-16T10:46:55.098Z,4.13
2018-07-16T10:49:23.414Z,1.87
2018-07-16T10:51:51.766Z,1.77
2018-07-16T10:54:20.090Z,3.43
2018-07-16T10:56:48.406Z,2.37
2018-07-16T10:59:16.747Z,3.30
2018-07-16T11:01:45.063Z,3.87
2018-07-16T11:04:13.400Z,2.10
2018-07-16T11:06:41.707Z,3.67
2018-07-16T11:09:10.037Z,2.90
2018-07-16T11:11:38.406Z,3.37
2018-07-16T11:14:06.703Z,2.20
2018-07-16T11:16:35.039Z,3.37
2018-07-16T11:19:03.368Z,3.53
2018-07-16T11:21:31.706Z,3.00
2018-07-16T11:24:00.060Z,2.97
2018-07-16T11:26:28.416Z,3.70
2018-07-16T11:28:56.721Z,3.83
2018-07-16T11:31:25.374Z,2.43
2018-07-16T11:33:53.742Z,3.17
2018-07-16T11:36:22.078Z,3.80
2018-07-16T11:38:50.409Z,3.63
2018-07-16T11:41:18.694Z,3.03
2018-07-16T11:43:47.009Z,4.83
2018-07-16T11:46:15.388Z,4.37
2018-07-16T11:48:43.643Z,5.77
2018-07-16T11:51:11.957Z,4.23
2018-07-16T11:53:40.275Z,3.20
2018-07-16T11:56:09.074Z,2.80
2018-07-16T11:58:37.498Z,2.73
2018-07-16T12:01:05.851Z,5.40
2018-07-16T12:03:34.209Z,2.87
2018-07-16T12:06:06.782Z,4.97
2018-07-16T12:08:35.107Z,4.60
2018-07-16T12:11:03.416Z,2.67
2018-07-16T12:13:31.766Z,3.43
2018-07-16T12:16:00.188Z,4.07
2018-07-16T12:18:28.524Z,6.53
2018-07-16T12:20:56.839Z,4.63
2018-07-16T12:23:25.158Z,4.33
2018-07-16T12:25:53.555Z,6.63
2018-07-16T12:28:23.255Z,2.87
2018-07-16T12:30:51.563Z,4.67
2018-07-16T12:33:19.930Z,4.10
2018-07-16T12:35:48.235Z,3.87
2018-07-16T12:38:16.576Z,5.83
2018-07-16T12:40:44.953Z,5.53
2018-07-16T12:43:13.312Z,4.17
2018-07-16T12:45:41.595Z,4.70
2018-07-16T12:48:09.937Z,3.80
2018-07-16T12:50:38.248Z,4.30
2018-07-16T12:53:08.144Z,7.03
2018-07-16T12:55:36.551Z,3.93
2018-07-16T12:58:05.268Z,4.00
2018-07-16T13:00:33.920Z,5.60
2018-07-16T13:03:02.895Z,4.20
2018-07-16T13:05:31.323Z,5.50
2018-07-16T13:07:59.686Z,8.40
2018-07-16T13:10:28.034Z,5.23
2018-07-16T13:12:56.468Z,4.13
2018-07-16T13:15:26.068Z,4.23
2018-07-16T13:17:54.482Z,3.47
2018-07-16T13:20:23.514Z,3.10
2018-07-16T13:22:51.880Z,2.33
2018-07-16T13:25:20.215Z,3.70
2018-07-16T13:27:48.522Z,3.50
2018-07-16T13:30:16.886Z,6.17
2018-07-16T13:32:45.241Z,4.07
2018-07-16T13:35:13.580Z,5.23
2018-07-16T13:37:42.485Z,4.40
2018-07-16T13:40:10.889Z,5.93
2018-07-16T13:42:39.194Z,4.10
2018-07-16T13:45:09.974Z,5.10
2018-07-16T13:50:32.169Z,6.20
2018-07-16T13:53:00.465Z,4.53
2018-07-16T13:55:30.050Z,5.10
2018-07-16T13:57:58.420Z,5.13
2018-07-16T14:00:27.693Z,5.60
2018-07-16T14:02:55.998Z,7.43
2018-07-16T14:05:24.349Z,4.73
2018-07-16T14:07:52.730Z,7.57
2018-07-16T14:10:21.061Z,5.77
2018-07-16T14:12:49.834Z,7.57
2018-07-16T14:15:18.174Z,5.47
2018-07-16T14:17:46.485Z,6.03
2018-07-16T14:20:15.376Z,4.37
2018-07-16T14:22:43.811Z,3.73
2018-07-16T14:25:12.221Z,5.40
2018-07-16T14:27:40.622Z,4.73
2018-07-16T14:30:09.226Z,6.43
2018-07-16T14:32:37.595Z,5.70
2018-07-16T14:35:06.250Z,5.40
2018-07-16T14:37:34.756Z,9.93
2018-07-16T14:40:03.389Z,4.93
2018-07-16T14:42:32.243Z,4.80
2018-07-16T14:45:00.687Z,5.87
2018-07-16T14:47:29.459Z,4.47
2018-07-16T14:49:57.905Z,5.77
2018-07-16T14:52:26.180Z,3.77
2018-07-16T14:54:54.892Z,6.87
2018-07-16T14:57:23.255Z,5.37
2018-07-16T14:59:51.622Z,6.37
2018-07-16T15:02:19.920Z,4.97
2018-07-16T15:04:48.281Z,3.80
2018-07-16T15:07:16.613Z,5.57
2018-07-16T15:09:44.970Z,5.80
2018-07-16T15:12:13.371Z,4.53
2018-07-16T15:14:41.765Z,2.60
2018-07-16T15:17:10.113Z,4.27
2018-07-16T15:19:39.765Z,4.50
2018-07-16T15:22:08.461Z,4.43
2018-07-16T15:24:36.935Z,6.10
2018-07-16T15:27:05.453Z,6.93
2018-07-16T15:29:33.933Z,8.27
2018-07-16T15:32:02.431Z,4.50
2018-07-16T15:34:30.829Z,4.20
2018-07-16T15:36:59.144Z,4.10
2018-07-16T15:39:27.514Z,3.40
2018-07-16T15:41:55.874Z,4.40
2018-07-16T15:44:24.239Z,5.17
2018-07-16T15:46:52.619Z,6.00
2018-07-16T15:49:21.026Z,6.27
2018-07-16T15:51:49.364Z,14.37
2018-07-16T15:54:17.736Z,18.07
2018-07-16T15:56:46.438Z,76.43
2018-07-16T15:59:15.660Z,38.37
2018-07-16T16:01:44.054Z,34.17
2018-07-16T16:04:24.326Z,46.77
2018-07-16T16:06:53.981Z,76.97
2018-07-16T16:09:22.377Z,45.13
2018-07-16T16:11:50.752Z,27.47
2018-07-16T16:14:19.159Z,50.80
2018-07-16T16:16:47.361Z,91.83
2018-07-16T16:19:15.452Z,71.67
2018-07-16T16:21:43.558Z,77.23
2018-07-16T16:24:11.645Z,75.27
2018-07-16T16:26:39.823Z,39.27
2018-07-16T16:29:07.940Z,98.37
2018-07-16T16:31:36.076Z,56.13
2018-07-16T16:34:04.153Z,55.07
2018-07-16T16:36:40.796Z,66.87
2018-07-16T16:39:09.723Z,63.37
2018-07-16T16:41:38.271Z,26.27
2018-07-16T16:44:06.591Z,50.83
2018-07-16T16:46:36.182Z,54.77
2018-07-16T16:49:04.628Z,22.07
2018-07-16T16:51:32.913Z,32.63
2018-07-16T16:54:01.757Z,25.57
2018-07-16T16:56:30.288Z,43.90
2018-07-16T16:58:58.776Z,29.07
2018-07-16T17:01:27.175Z,30.53
2018-07-16T17:03:55.892Z,17.03
2018-07-16T17:06:24.539Z,22.17
2018-07-16T17:08:53.154Z,9.60
2018-07-16T17:11:21.631Z,9.37
2018-07-16T17:13:50.059Z,15.20
2018-07-16T17:16:18.485Z,18.50
2018-07-16T17:18:46.890Z,8.07
2018-07-16T17:21:15.314Z,16.40
2018-07-16T17:23:44.402Z,9.70
2018-07-16T17:26:12.737Z,8.43
2018-07-16T17:28:42.312Z,10.77
2018-07-16T17:31:10.658Z,6.40
2018-07-16T17:33:38.961Z,5.37
2018-07-16T17:36:07.392Z,5.80
2018-07-16T17:38:36.231Z,7.97
2018-07-16T17:41:04.587Z,6.27
2018-07-16T17:43:33.005Z,5.00
2018-07-16T17:46:01.363Z,7.13
2018-07-16T17:48:29.803Z,5.60
2018-07-16T17:50:58.156Z,5.83
2018-07-16T17:53:26.561Z,4.40
2018-07-16T17:55:54.956Z,6.63
2018-07-16T17:58:23.311Z,7.30
2018-07-16T18:00:51.709Z,4.70
2018-07-16T18:03:20.177Z,5.17
2018-07-16T18:05:48.728Z,4.73
2018-07-16T18:08:17.174Z,5.60
2018-07-16T18:10:45.596Z,5.73
2018-07-16T18:13:20.504Z,7.37
2018-07-16T18:15:48.803Z,4.30
2018-07-16T18:18:17.224Z,8.90
2018-07-16T18:20:46.025Z,9.97
2018-07-16T18:23:14.458Z,9.53
2018-07-16T18:25:43.153Z,7.17
2018-07-16T18:28:12.763Z,7.70
2018-07-16T18:30:41.127Z,5.23
2018-07-16T18:33:09.483Z,7.20
2018-07-16T18:35:37.959Z,3.30
2018-07-16T18:38:06.204Z,6.10
2018-07-16T18:40:34.775Z,7.63
2018-07-16T18:43:03.142Z,6.00
2018-07-16T18:45:31.549Z,10.80
2018-07-16T18:47:59.935Z,5.17
2018-07-16T18:50:28.232Z,7.67
2018-07-16T18:52:56.586Z,6.37
2018-07-16T18:55:25.236Z,4.63
2018-07-16T18:57:53.594Z,7.00
2018-07-16T19:00:22.518Z,8.83
2018-07-16T19:02:50.888Z,8.10
2018-07-16T19:05:19.249Z,4.93
2018-07-16T19:07:47.619Z,7.03
2018-07-16T19:10:15.995Z,4.87
2018-07-16T19:12:44.391Z,4.77
2018-07-16T19:15:17.593Z,5.57
2018-07-16T19:17:45.948Z,8.73
2018-07-16T19:20:15.537Z,7.47
2018-07-16T19:22:43.863Z,9.97
2018-07-16T19:25:12.156Z,7.23
2018-07-16T19:27:40.555Z,9.30
2018-07-16T19:30:08.971Z,9.20
2018-07-16T19:32:37.300Z,4.87
2018-07-16T19:35:05.735Z,5.43
2018-07-16T19:37:34.503Z,8.70
2018-07-16T19:40:02.883Z,5.80
2018-07-16T19:42:31.200Z,5.10
2018-07-16T19:45:22.021Z,4.90
2018-07-16T19:47:51.332Z,6.13
2018-07-16T19:53:07.046Z,5.57
2018-07-16T19:55:36.958Z,5.10
2018-07-16T19:58:22.145Z,4.87
2018-07-16T20:00:54.049Z,5.70
2018-07-16T20:03:45.975Z,9.67
2018-07-16T20:06:15.512Z,9.33
2018-07-16T20:08:43.987Z,7.00
2018-07-16T20:11:12.356Z,7.37
2018-07-16T20:13:41.532Z,8.53
2018-07-16T20:16:09.932Z,5.93
2018-07-16T20:18:38.385Z,4.67
2018-07-16T20:21:07.084Z,7.83
2018-07-16T20:23:35.693Z,7.73
2018-07-16T20:26:04.216Z,5.03
2018-07-16T20:28:32.915Z,6.93
2018-07-16T20:31:01.496Z,4.20
2018-07-16T20:33:29.856Z,7.50
2018-07-16T20:35:58.271Z,6.77
2018-07-16T20:38:26.584Z,10.40
2018-07-16T20:40:54.917Z,7.30
2018-07-16T20:43:23.405Z,6.90
2018-07-16T20:45:52.006Z,8.23
2018-07-16T20:48:20.581Z,6.60
2018-07-16T20:50:48.925Z,5.93
2018-07-16T20:53:17.292Z,6.30
2018-07-16T20:55:45.630Z,8.77
2018-07-16T20:58:14.028Z,7.10
2018-07-16T21:00:42.363Z,5.90
2018-07-16T21:03:10.820Z,6.27
2018-07-16T21:05:39.138Z,7.20
2018-07-16T21:08:07.502Z,6.50
2018-07-16T21:10:36.961Z,9.67
2018-07-16T21:13:05.263Z,8.37
2018-07-16T21:15:33.609Z,6.90
2018-07-16T21:18:02.024Z,6.30
2018-07-16T21:20:30.393Z,6.20
2018-07-16T21:22:58.704Z,6.13
2018-07-16T21:25:27.374Z,6.40
2018-07-16T21:27:55.746Z,6.43
2018-07-16T21:30:25.327Z,9.27
2018-07-16T21:32:53.650Z,6.33
2018-07-16T21:35:27.278Z,7.20
2018-07-16T21:37:56.223Z,6.23
2018-07-16T21:40:25.317Z,6.73
2018-07-16T21:42:54.047Z,6.57
2018-07-16T21:45:22.469Z,9.70
2018-07-16T21:47:50.850Z,6.50
2018-07-16T21:50:19.224Z,9.10
2018-07-16T21:52:47.595Z,8.67
2018-07-16T21:55:15.951Z,8.47
2018-07-16T21:57:44.306Z,9.63
2018-07-16T22:00:23.774Z,8.33
2018-07-16T22:02:52.148Z,7.47
2018-07-16T22:05:20.539Z,11.57
2018-07-16T22:07:48.890Z,7.20
2018-07-16T22:10:17.361Z,5.93
2018-07-16T22:12:45.734Z,8.17
2018-07-16T22:15:31.436Z,5.50
2018-07-16T22:17:59.834Z,4.97
2018-07-16T22:20:28.470Z,4.40
2018-07-16T22:22:57.128Z,4.80
2018-07-16T22:25:26.034Z,4.10
2018-07-16T22:27:54.497Z,4.30
2018-07-16T22:30:22.942Z,4.37
2018-07-16T22:32:51.279Z,3.90
2018-07-16T22:35:19.696Z,5.20
2018-07-16T22:37:48.081Z,4.63
2018-07-16T22:40:16.561Z,4.83
2018-07-16T22:42:44.955Z,4.63
2018-07-16T22:45:13.374Z,3.77
2018-07-16T22:47:41.739Z,4.83
2018-07-16T22:50:10.843Z,3.90
2018-07-16T22:52:39.289Z,4.13
2018-07-16T22:55:07.731Z,3.70
2018-07-16T22:57:36.155Z,4.33
2018-07-16T23:00:05.358Z,3.40
2018-07-16T23:02:33.767Z,4.20
2018-07-16T23:05:02.115Z,3.77
2018-07-16T23:07:30.496Z,3.40
2018-07-16T23:09:58.848Z,3.90
2018-07-16T23:12:27.300Z,4.10
2018-07-16T23:14:55.727Z,3.80
2018-07-16T23:17:24.102Z,3.57
2018-07-16T23:19:52.431Z,4.83
2018-07-16T23:22:22.456Z,3.63
2018-07-16T23:24:50.844Z,4.80
2018-07-16T23:27:19.161Z,4.20
2018-07-16T23:29:47.545Z,4.37
2018-07-16T23:32:15.908Z,4.93
2018-07-16T23:34:44.263Z,5.53
2018-07-16T23:37:12.608Z,4.40
2018-07-16T23:39:40.946Z,4.60
2018-07-16T23:42:09.338Z,5.57
2018-07-16T23:44:37.696Z,5.67
2018-07-16T23:47:06.053Z,4.67
2018-07-16T23:49:34.437Z,5.33
2018-07-16T23:52:02.827Z,6.00
2018-07-16T23:54:31.178Z,4.60
2018-07-16T23:56:59.565Z,5.80
2018-07-16T23:59:27.925Z,4.80
